createdAt,value
2017-11-08T00:00:17.093Z,20.9
2017-11-08T00:02:16.952Z,21
2017-11-08T00:04:16.830Z,21.6
2017-11-08T00:06:17.703Z,23.1
2017-11-08T00:08:17.597Z,21.5
2017-11-08T00:10:17.442Z,23.1
2017-11-08T00:12:17.323Z,21.9
2017-11-08T00:14:17.192Z,22.9
2017-11-08T00:16:17.088Z,22.9
2017-11-08T00:18:17.956Z,23.5
2017-11-08T00:20:16.814Z,23.4
2017-11-08T00:22:16.697Z,22
2017-11-08T00:24:17.588Z,23.9
2017-11-08T00:26:17.442Z,23.5
2017-11-08T00:28:17.321Z,21.8
2017-11-08T00:30:17.216Z,23.2
2017-11-08T00:32:17.088Z,23.2
2017-11-08T00:34:16.976Z,21.5
2017-11-08T00:36:16.854Z,24.7
2017-11-08T00:38:16.723Z,23.6
2017-11-08T00:40:17.603Z,22.7
2017-11-08T00:42:17.488Z,23.3
2017-11-08T00:44:17.375Z,23.3
2017-11-08T00:46:17.263Z,24.6
2017-11-08T00:48:17.132Z,24.2
2017-11-08T00:50:17.005Z,23.3
2017-11-08T00:52:16.892Z,22.3
2017-11-08T00:54:16.778Z,22.8
2017-11-08T00:56:17.659Z,23.4
2017-11-08T00:58:17.548Z,22.7
2017-11-08T01:00:18.446Z,24.6
2017-11-08T01:02:17.316Z,24
2017-11-08T01:04:17.201Z,24.5
2017-11-08T01:06:18.051Z,23.5
2017-11-08T01:08:16.930Z,24.8
2017-11-08T01:10:17.812Z,22.5
2017-11-08T01:12:16.684Z,23.2
2017-11-08T01:14:17.547Z,23.7
2017-11-08T01:16:17.432Z,23.8
2017-11-08T01:18:18.288Z,24.4
2017-11-08T01:20:17.170Z,23.8
2017-11-08T01:22:17.016Z,23.9
2017-11-08T01:24:16.886Z,23.7
2017-11-08T01:26:17.755Z,23.8
2017-11-08T01:28:16.620Z,23.7
2017-11-08T01:30:17.479Z,25.1
2017-11-08T01:32:17.350Z,24.6
2017-11-08T01:34:17.187Z,24.1
2017-11-08T01:36:17.033Z,24.7
2017-11-08T01:38:16.914Z,23.1
2017-11-08T01:40:17.773Z,26.1
2017-11-08T01:42:16.618Z,25
2017-11-08T01:44:17.474Z,24.6
2017-11-08T01:46:17.349Z,24.7
2017-11-08T01:48:17.203Z,24
2017-11-08T01:50:21.038Z,24.7
2017-11-08T01:52:16.901Z,23.9
2017-11-08T01:54:16.738Z,25.3
2017-11-08T01:56:17.612Z,23.9
2017-11-08T01:58:17.477Z,24.2
2017-11-08T02:00:17.331Z,23.8
2017-11-08T02:02:17.165Z,24.5
2017-11-08T02:04:17.031Z,22.9
2017-11-08T02:06:17.869Z,24.5
2017-11-08T02:08:16.736Z,26.3
2017-11-08T02:10:17.574Z,25.4
2017-11-08T02:12:17.426Z,25.5
2017-11-08T02:14:17.278Z,24.9
2017-11-08T02:16:18.095Z,25.5
2017-11-08T02:18:17.932Z,25.7
2017-11-08T02:20:20.771Z,27.4
2017-11-08T02:22:16.613Z,26.1
2017-11-08T02:24:17.452Z,24.8
2017-11-08T02:26:17.290Z,25.3
2017-11-08T02:28:17.121Z,23.9
2017-11-08T02:30:16.959Z,26.4
2017-11-08T02:32:16.829Z,24.8
2017-11-08T02:34:20.631Z,24.6
2017-11-08T02:36:17.471Z,25.4
2017-11-08T02:38:17.304Z,23.9
2017-11-08T02:40:17.143Z,26.1
2017-11-08T02:42:20.952Z,24.4
2017-11-08T02:44:16.794Z,25.9
2017-11-08T02:46:17.635Z,24.6
2017-11-08T02:48:17.486Z,25.6
2017-11-08T02:50:18.320Z,26
2017-11-08T02:52:21.124Z,25.4
2017-11-08T02:54:16.983Z,25.6
2017-11-08T02:56:16.842Z,25.8
2017-11-08T02:58:20.665Z,26.9
2017-11-08T03:00:17.537Z,23.7
2017-11-08T03:02:17.356Z,26.5
2017-11-08T03:04:17.233Z,25.2
2017-11-08T03:06:18.027Z,24.9
2017-11-08T03:08:17.180Z,26.4
2017-11-08T03:10:17.717Z,25.6
2017-11-08T03:12:17.570Z,25.9
2017-11-08T03:14:17.434Z,24.6
2017-11-08T03:16:17.262Z,26.6
2017-11-08T03:18:18.107Z,24.1
2017-11-08T03:20:17.933Z,25.6
2017-11-08T03:22:16.781Z,25.4
2017-11-08T03:24:16.611Z,25.7
2017-11-08T03:26:17.455Z,24.8
2017-11-08T03:28:17.293Z,26.1
2017-11-08T03:30:17.128Z,27.1
2017-11-08T03:32:16.969Z,25.3
2017-11-08T03:34:16.825Z,26.9
2017-11-08T03:36:17.668Z,24.9
2017-11-08T03:38:17.509Z,25.7
2017-11-08T03:40:17.365Z,25.3
2017-11-08T03:42:17.210Z,26.2
2017-11-08T03:44:17.032Z,25.3
2017-11-08T03:46:17.888Z,26.2
2017-11-08T03:48:16.744Z,25.6
2017-11-08T03:50:17.592Z,27
2017-11-08T03:52:17.453Z,25.8
2017-11-08T03:54:17.286Z,27.4
2017-11-08T03:56:17.131Z,26.1
2017-11-08T03:58:16.976Z,26
2017-11-08T04:00:16.860Z,26.7
2017-11-08T04:02:17.664Z,25.3
2017-11-08T04:04:17.517Z,26.4
2017-11-08T04:06:17.361Z,24.7
2017-11-08T04:08:21.202Z,25.5
2017-11-08T04:10:17.055Z,26.1
2017-11-08T04:12:20.861Z,27
2017-11-08T04:14:16.716Z,26.5
2017-11-08T04:16:17.537Z,26.6
2017-11-08T04:18:18.398Z,26.4
2017-11-08T04:20:21.210Z,27
2017-11-08T04:22:17.060Z,25.6
2017-11-08T04:24:16.898Z,25.9
2017-11-08T04:26:17.748Z,25.8
2017-11-08T04:28:16.558Z,25.6
2017-11-08T04:30:17.420Z,24.7
2017-11-08T04:32:17.249Z,25.6
2017-11-08T04:34:17.098Z,25.8
2017-11-08T04:36:17.945Z,25.3
2017-11-08T04:38:16.781Z,25.9
2017-11-08T04:40:17.631Z,25.3
2017-11-08T04:42:17.491Z,25.8
2017-11-08T04:44:21.294Z,26.2
2017-11-08T04:46:18.140Z,27.3
2017-11-08T04:48:16.994Z,26.4
2017-11-08T04:50:17.823Z,25.4
2017-11-08T04:52:16.677Z,26
2017-11-08T04:54:18.517Z,26.3
2017-11-08T04:56:17.340Z,26.7
2017-11-08T04:58:17.215Z,26.2
2017-11-08T05:00:18.045Z,26.2
2017-11-08T05:02:20.855Z,25.8
2017-11-08T05:04:16.714Z,26.3
2017-11-08T05:06:17.559Z,27.2
2017-11-08T05:08:21.362Z,27
2017-11-08T05:10:17.231Z,27.1
2017-11-08T05:12:18.069Z,28
2017-11-08T05:14:20.903Z,26.9
2017-11-08T05:16:17.737Z,26.8
2017-11-08T05:18:17.573Z,27.3
2017-11-08T05:20:17.400Z,26.1
2017-11-08T05:22:17.220Z,26.7
2017-11-08T05:24:17.083Z,28.4
2017-11-08T05:26:16.927Z,27.1
2017-11-08T05:28:20.727Z,27.6
2017-11-08T05:30:16.599Z,27.6
2017-11-08T05:32:21.439Z,26.5
2017-11-08T05:34:17.301Z,29
2017-11-08T05:36:17.130Z,28.7
2017-11-08T05:38:16.976Z,28.4
2017-11-08T05:40:17.808Z,27.3
2017-11-08T05:42:16.662Z,27.2
2017-11-08T05:44:17.501Z,28.9
2017-11-08T05:46:17.351Z,27.9
2017-11-08T05:48:21.144Z,28.6
2017-11-08T05:50:16.997Z,27.8
2017-11-08T05:52:16.855Z,28.1
2017-11-08T05:54:16.692Z,27.1
2017-11-08T05:56:17.525Z,27.9
2017-11-08T05:58:21.330Z,27.8
2017-11-08T06:00:17.213Z,27.7
2017-11-08T06:02:17.029Z,29.4
2017-11-08T06:04:16.860Z,27
2017-11-08T06:06:17.686Z,27.2
2017-11-08T06:08:17.545Z,27.9
2017-11-08T06:10:17.406Z,28.3
2017-11-08T06:12:17.254Z,27.3
2017-11-08T06:14:17.091Z,29.7
2017-11-08T06:16:17.941Z,29.2
2017-11-08T06:18:17.773Z,29.4
2017-11-08T06:20:16.635Z,28.3
2017-11-08T06:22:21.443Z,28.5
2017-11-08T06:24:17.319Z,29
2017-11-08T06:26:17.167Z,27.5
2017-11-08T06:28:17.001Z,28.5
2017-11-08T06:30:16.855Z,29
2017-11-08T06:32:16.689Z,29
2017-11-08T06:34:17.547Z,29.5
2017-11-08T06:36:17.373Z,29.5
2017-11-08T06:38:17.228Z,30
2017-11-08T06:40:17.102Z,28.9
2017-11-08T06:42:20.912Z,29.3
2017-11-08T06:44:16.779Z,30
2017-11-08T06:46:16.635Z,29
2017-11-08T06:48:17.507Z,27.8
2017-11-08T06:50:17.349Z,28.1
2017-11-08T06:52:17.194Z,27.1
2017-11-08T06:54:17.053Z,28
2017-11-08T06:56:17.886Z,29.5
2017-11-08T06:58:16.736Z,29.3
2017-11-08T07:00:16.607Z,28.2
2017-11-08T07:02:17.433Z,28.5
2017-11-08T07:04:17.293Z,28.4
2017-11-08T07:06:18.138Z,27.7
2017-11-08T07:08:16.980Z,27.7
2017-11-08T07:10:17.818Z,26.8
2017-11-08T07:12:16.686Z,28.4
2017-11-08T07:14:21.500Z,25.8
2017-11-08T07:16:17.351Z,27.1
2017-11-08T07:18:18.193Z,26.3
2017-11-08T07:20:17.026Z,26.4
2017-11-08T07:22:20.859Z,26.7
2017-11-08T07:24:16.729Z,26.5
2017-11-08T07:26:17.579Z,25.1
2017-11-08T07:28:21.404Z,25.5
2017-11-08T07:30:17.240Z,25.4
2017-11-08T07:32:17.106Z,24.6
2017-11-08T07:34:16.943Z,25.6
2017-11-08T07:36:17.774Z,24.6
2017-11-08T07:38:16.613Z,23.7
2017-11-08T07:40:17.460Z,24.7
2017-11-08T07:42:21.281Z,24.1
2017-11-08T07:44:17.145Z,23.2
2017-11-08T07:46:17.973Z,24.8
2017-11-08T07:48:16.811Z,24.7
2017-11-08T07:50:16.642Z,23.8
2017-11-08T07:52:21.462Z,24.5
2017-11-08T07:54:17.287Z,23.5
2017-11-08T07:56:17.121Z,23.1
2017-11-08T07:58:16.943Z,22.9
2017-11-08T08:00:16.768Z,23.6
2017-11-08T08:02:16.604Z,22.7
2017-11-08T08:04:21.425Z,23.1
2017-11-08T08:06:17.255Z,22.7
2017-11-08T08:08:21.069Z,22.3
2017-11-08T08:10:17.919Z,24.1
2017-11-08T08:12:16.739Z,24.3
2017-11-08T08:14:16.557Z,21.9
2017-11-08T08:16:17.415Z,23.5
2017-11-08T08:18:18.235Z,25
2017-11-08T08:20:21.044Z,24
2017-11-08T08:22:16.895Z,23.3
2017-11-08T08:24:16.754Z,23.8
2017-11-08T08:26:16.563Z,23.6
2017-11-08T08:28:17.408Z,23.4
2017-11-08T08:30:18.208Z,23.4
2017-11-08T08:32:17.040Z,22.8
2017-11-08T08:34:16.895Z,22.9
2017-11-08T08:36:17.742Z,24.2
2017-11-08T08:38:16.583Z,23.6
2017-11-08T08:40:17.452Z,22.5
2017-11-08T08:42:18.265Z,23.2
2017-11-08T08:44:18.116Z,23.8
2017-11-08T08:46:16.944Z,22.9
2017-11-08T08:48:16.805Z,22
2017-11-08T08:50:16.634Z,21.9
2017-11-08T08:52:17.469Z,22.6
2017-11-08T08:54:17.331Z,22
2017-11-08T08:56:18.190Z,21.8
2017-11-08T08:58:17.022Z,21.8
2017-11-08T09:00:16.868Z,21.7
2017-11-08T09:02:16.736Z,22.8
2017-11-08T09:06:17.429Z,20.8
2017-11-08T09:08:17.285Z,22.6
2017-11-08T09:10:17.142Z,21.1
2017-11-08T09:12:16.996Z,21.4
2017-11-08T09:14:16.852Z,22.3
2017-11-08T09:18:17.564Z,21.9
2017-11-08T09:20:17.462Z,20.8
2017-11-08T09:22:17.326Z,21.4
2017-11-08T09:24:21.153Z,21.4
2017-11-08T09:26:18.047Z,20.2
2017-11-08T09:28:16.893Z,20.9
2017-11-08T09:30:17.775Z,21.9
2017-11-08T09:32:16.637Z,21.2
2017-11-08T09:34:17.492Z,21.6
2017-11-08T09:36:17.366Z,21
2017-11-08T09:38:17.221Z,21.8
2017-11-08T09:40:17.085Z,20.6
2017-11-08T09:42:16.946Z,20.8
2017-11-08T09:44:16.809Z,21.9
2017-11-08T09:46:17.657Z,21.6
2017-11-08T09:48:17.503Z,20.9
2017-11-08T09:50:17.355Z,21.4
2017-11-08T09:52:17.236Z,21.1
2017-11-08T09:54:21.087Z,23
2017-11-08T09:56:17.941Z,20.7
2017-11-08T09:58:16.837Z,21.9
2017-11-08T10:00:17.675Z,21.9
2017-11-08T10:02:17.545Z,21.7
2017-11-08T10:04:17.402Z,22.2
2017-11-08T10:06:17.247Z,21.7
2017-11-08T10:08:17.160Z,22.2
2017-11-08T10:10:16.996Z,22.7
2017-11-08T10:12:20.817Z,21.9
2017-11-08T10:14:16.712Z,21.4
2017-11-08T10:16:17.539Z,22.6
2017-11-08T10:18:18.381Z,21.9
2017-11-08T10:20:17.268Z,21.7
2017-11-08T10:22:17.109Z,23.8
2017-11-08T10:24:16.992Z,23
2017-11-08T10:26:17.840Z,23.2
2017-11-08T10:28:16.703Z,22.2
2017-11-08T10:30:17.567Z,22.6
2017-11-08T10:32:17.410Z,22.2
2017-11-08T10:34:17.283Z,23.4
2017-11-08T10:36:17.146Z,23.1
2017-11-08T10:38:17.974Z,22.5
2017-11-08T10:40:17.845Z,22.5
2017-11-08T10:42:16.666Z,21.8
2017-11-08T10:44:17.529Z,22.1
2017-11-08T10:46:17.403Z,23.7
2017-11-08T10:48:17.290Z,21.4
2017-11-08T10:50:17.158Z,23.1
2017-11-08T10:52:17.044Z,21.6
2017-11-08T10:54:16.916Z,21.8
2017-11-08T10:56:16.804Z,22.7
2017-11-08T10:58:16.662Z,22.4
2017-11-08T11:00:21.540Z,22.4
2017-11-08T11:02:17.419Z,22.6
2017-11-08T11:04:17.287Z,22.1
2017-11-08T11:06:18.176Z,22.4
2017-11-08T11:08:17.044Z,22.2
2017-11-08T11:10:17.913Z,23.6
2017-11-08T11:12:16.838Z,23.2
2017-11-08T11:14:16.689Z,21.4
2017-11-08T11:16:17.596Z,21.6
2017-11-08T11:18:21.470Z,22.1
2017-11-08T11:20:17.379Z,23
2017-11-08T11:22:17.257Z,21.7
2017-11-08T11:24:17.160Z,22.2
2017-11-08T11:26:17.069Z,21.6
2017-11-08T11:28:16.970Z,21.2
2017-11-08T11:30:16.844Z,22.8
2017-11-08T11:32:16.731Z,21.6
2017-11-08T11:34:16.637Z,21.3
2017-11-08T11:36:17.513Z,22.3
2017-11-08T11:38:17.405Z,21.4
2017-11-08T11:40:17.296Z,20.4
2017-11-08T11:42:17.185Z,22.3
2017-11-08T11:44:17.065Z,21.7
2017-11-08T11:46:16.937Z,21.9
2017-11-08T11:48:16.851Z,21.8
2017-11-08T11:50:20.699Z,21
2017-11-08T11:52:16.593Z,21
2017-11-08T11:54:17.512Z,20.4
2017-11-08T11:56:17.376Z,20.2
2017-11-08T11:58:17.293Z,20.8
2017-11-08T12:00:17.190Z,22.6
2017-11-08T12:02:17.081Z,21.1
2017-11-08T12:04:16.982Z,21.2
2017-11-08T12:06:16.885Z,20.8
2017-11-08T12:08:16.773Z,20.4
2017-11-08T12:10:17.673Z,20.8
2017-11-08T12:12:17.561Z,21.2
2017-11-08T12:14:17.450Z,20.8
2017-11-08T12:16:17.350Z,20.3
2017-11-08T12:18:21.259Z,21.1
2017-11-08T12:20:17.158Z,20.8
2017-11-08T12:22:17.084Z,20.7
2017-11-08T12:24:16.957Z,20
2017-11-08T12:26:16.857Z,20.8
2017-11-08T12:28:16.743Z,19.4
2017-11-08T12:30:20.642Z,19.6
2017-11-08T12:32:17.549Z,20.2
2017-11-08T12:34:17.439Z,20.5
2017-11-08T12:36:17.346Z,19.9
2017-11-08T12:38:17.242Z,20.5
2017-11-08T12:40:17.137Z,20.3
2017-11-08T12:42:17.020Z,21.1
2017-11-08T12:44:16.930Z,20.6
2017-11-08T12:46:16.813Z,20.9
2017-11-08T12:48:16.735Z,19.4
2017-11-08T12:50:17.584Z,20.5
2017-11-08T12:52:17.493Z,20.3
2017-11-08T12:54:17.378Z,20.4
2017-11-08T12:56:17.271Z,20.8
2017-11-08T12:58:17.176Z,21.5
2017-11-08T13:00:17.093Z,20.3
2017-11-08T13:02:17.008Z,21.3
2017-11-08T13:04:16.898Z,21.3
2017-11-08T13:06:17.807Z,20.6
2017-11-08T13:08:16.731Z,21.2
2017-11-08T13:10:17.655Z,20.7
2017-11-08T13:12:17.549Z,21.9
2017-11-08T13:14:17.487Z,22.3
2017-11-08T13:16:17.397Z,22
2017-11-08T13:18:17.336Z,21.9
2017-11-08T13:20:17.273Z,21.7
2017-11-08T13:22:17.194Z,22.1
2017-11-08T13:24:17.143Z,21
2017-11-08T13:26:18.048Z,21
2017-11-08T13:28:16.984Z,22.5
2017-11-08T13:30:16.903Z,21.4
2017-11-08T13:32:16.818Z,22.3
2017-11-08T13:34:16.755Z,23.1
2017-11-08T13:36:17.655Z,22.4
2017-11-08T13:38:17.576Z,22.6
2017-11-08T13:40:17.499Z,21.6
2017-11-08T13:42:17.417Z,21.8
2017-11-08T13:44:17.338Z,22.2
2017-11-08T13:46:18.250Z,22.7
2017-11-08T13:48:17.149Z,22.2
2017-11-08T13:50:17.075Z,21.1
2017-11-08T13:52:16.980Z,21.8
2017-11-08T13:54:16.878Z,21.3
2017-11-08T13:56:16.788Z,22.6
2017-11-08T13:58:16.716Z,22.8
2017-11-08T14:00:16.618Z,23.1
2017-11-08T14:02:17.510Z,23.3
2017-11-08T14:04:17.427Z,22.5
2017-11-08T14:06:17.326Z,23.6
2017-11-08T14:08:17.236Z,22.8
2017-11-08T14:10:17.117Z,22.7
2017-11-08T14:12:17.029Z,22.5
2017-11-08T14:14:16.930Z,22.8
2017-11-08T14:16:16.834Z,22.6
2017-11-08T14:18:17.731Z,22.6
2017-11-08T14:20:16.614Z,22.7
2017-11-08T14:22:17.499Z,22
2017-11-08T14:24:17.400Z,23.8
2017-11-08T14:26:17.305Z,22.1
2017-11-08T14:28:17.204Z,23.5
2017-11-08T14:30:17.104Z,23.1
2017-11-08T14:32:16.977Z,23.2
2017-11-08T14:34:16.894Z,23.9
2017-11-08T14:36:17.794Z,24
2017-11-08T14:38:16.685Z,24.5
2017-11-08T14:40:17.590Z,24.1
2017-11-08T14:42:17.481Z,24.2
2017-11-08T14:44:17.399Z,24.5
2017-11-08T14:46:17.269Z,23.7
2017-11-08T14:48:17.181Z,24.6
2017-11-08T14:50:17.080Z,23.9
2017-11-08T14:52:17.024Z,24.3
2017-11-08T14:54:20.875Z,25.9
2017-11-08T14:56:17.776Z,24.4
2017-11-08T14:58:16.670Z,24.8
2017-11-08T15:00:17.572Z,25.5
2017-11-08T15:02:17.443Z,25.4
2017-11-08T15:04:17.346Z,24.5
2017-11-08T15:06:17.225Z,25.5
2017-11-08T15:08:17.116Z,24.1
2017-11-08T15:10:18.003Z,24.6
2017-11-08T15:12:16.894Z,25.4
2017-11-08T15:14:16.761Z,25.7
2017-11-08T15:16:17.647Z,25
2017-11-08T15:18:17.550Z,24.3
2017-11-08T15:20:17.450Z,25.2
2017-11-08T15:22:17.338Z,25.4
2017-11-08T15:24:17.225Z,24.2
2017-11-08T15:26:17.090Z,26
2017-11-08T15:28:20.932Z,25.7
2017-11-08T15:30:16.833Z,25.5
2017-11-08T15:32:16.701Z,25.2
2017-11-08T15:34:17.558Z,24.7
2017-11-08T15:36:17.425Z,25.6
2017-11-08T15:38:17.262Z,24.2
2017-11-08T15:40:17.145Z,25.8
2017-11-08T15:42:16.998Z,25.1
2017-11-08T15:44:16.870Z,25.5
2017-11-08T15:46:16.729Z,24.6
2017-11-08T15:48:16.608Z,25
2017-11-08T15:50:17.483Z,26.2
2017-11-08T15:52:17.339Z,25.6
2017-11-08T15:54:17.221Z,24
2017-11-08T15:56:18.105Z,27.2
2017-11-08T15:58:16.951Z,25.3
2017-11-08T16:00:16.860Z,25.9
2017-11-08T16:02:16.714Z,24.8
2017-11-08T16:04:17.609Z,26.9
2017-11-08T16:06:17.466Z,24.3
2017-11-08T16:08:17.364Z,26.1
2017-11-08T16:10:17.240Z,26.4
2017-11-08T16:12:17.119Z,25.9
2017-11-08T16:14:16.980Z,25.5
2017-11-08T16:16:16.859Z,25.7
2017-11-08T16:18:17.726Z,27.1
2017-11-08T16:20:17.619Z,25.6
2017-11-08T16:22:17.475Z,24.7
2017-11-08T16:24:17.356Z,26.1
2017-11-08T16:26:17.219Z,26.4
2017-11-08T16:28:17.079Z,23.9
2017-11-08T16:30:16.938Z,25.3
2017-11-08T16:32:16.809Z,25.4
2017-11-08T16:34:16.693Z,25.7
2017-11-08T16:36:17.556Z,26.1
2017-11-08T16:38:17.439Z,26.9
2017-11-08T16:40:17.308Z,25.2
2017-11-08T16:42:17.171Z,25.8
2017-11-08T16:44:17.035Z,26.3
2017-11-08T16:46:16.905Z,25.2
2017-11-08T16:48:16.773Z,26.1
2017-11-08T16:50:16.627Z,24.9
2017-11-08T16:52:17.508Z,26.2
2017-11-08T16:54:17.350Z,26.2
2017-11-08T16:56:17.234Z,25.3
2017-11-08T16:58:17.112Z,27.3
2017-11-08T17:00:16.974Z,27.3
2017-11-08T17:02:16.832Z,25.9
2017-11-08T17:04:16.716Z,27
2017-11-08T17:06:17.590Z,25.9
2017-11-08T17:08:17.459Z,27.7
2017-11-08T17:10:17.344Z,26.7
2017-11-08T17:12:17.221Z,25
2017-11-08T17:14:17.098Z,26.8
2017-11-08T17:16:16.960Z,24.8
2017-11-08T17:18:17.833Z,27.9
2017-11-08T17:20:16.696Z,26.2
2017-11-08T17:22:17.540Z,27.2
2017-11-08T17:24:17.401Z,26.1
2017-11-08T17:26:17.259Z,25.9
2017-11-08T17:28:17.151Z,28.5
2017-11-08T17:30:17.001Z,27.4
2017-11-08T17:32:16.876Z,27.7
2017-11-08T17:34:16.730Z,27.3
2017-11-08T17:36:17.581Z,27
2017-11-08T17:38:17.444Z,26.2
2017-11-08T17:40:17.315Z,26.3
2017-11-08T17:42:18.158Z,27.6
2017-11-08T17:44:17.031Z,26.8
2017-11-08T17:46:16.902Z,26.7
2017-11-08T17:48:16.746Z,29.8
2017-11-08T17:50:16.609Z,27.5
2017-11-08T17:52:17.448Z,27
2017-11-08T17:54:17.309Z,26.9
2017-11-08T17:56:18.155Z,27.3
2017-11-08T17:58:17.015Z,28.2
2017-11-08T18:00:16.866Z,27.2
2017-11-08T18:02:16.743Z,27.7
2017-11-08T18:04:20.561Z,27.2
2017-11-08T18:06:17.420Z,26.6
2017-11-08T18:08:17.266Z,28.3
2017-11-08T18:10:17.137Z,26.7
2017-11-08T18:12:16.981Z,28.6
2017-11-08T18:14:20.805Z,27.6
2017-11-08T18:16:17.663Z,27.9
2017-11-08T18:18:17.544Z,29.1
2017-11-08T18:20:18.370Z,27.9
2017-11-08T18:22:17.249Z,28.8
2017-11-08T18:24:21.084Z,26.5
2017-11-08T18:26:17.957Z,27.7
2017-11-08T18:28:16.806Z,28.9
2017-11-08T18:30:16.663Z,28.4
2017-11-08T18:32:17.515Z,27
2017-11-08T18:34:17.380Z,28.2
2017-11-08T18:36:17.234Z,27.3
2017-11-08T18:38:17.095Z,28.8
2017-11-08T18:40:17.944Z,28.4
2017-11-08T18:42:20.746Z,28.7
2017-11-08T18:44:16.618Z,29
2017-11-08T18:46:17.454Z,26.9
2017-11-08T18:48:17.305Z,27
2017-11-08T18:50:17.173Z,27.1
2017-11-08T18:52:17.017Z,27.6
2017-11-08T18:54:20.850Z,28.2
2017-11-08T18:56:16.706Z,28.5
2017-11-08T18:58:20.546Z,28.2
2017-11-08T19:00:18.387Z,27.9
2017-11-08T19:02:17.234Z,27.3
2017-11-08T19:04:17.054Z,27.1
2017-11-08T19:06:17.917Z,27.9
2017-11-08T19:08:17.713Z,27.4
2017-11-08T19:10:17.556Z,28.8
2017-11-08T19:12:17.421Z,28.6
2017-11-08T19:14:21.224Z,28.8
2017-11-08T19:16:17.106Z,28.2
2017-11-08T19:18:17.943Z,26.4
2017-11-08T19:20:17.802Z,27.7
2017-11-08T19:22:17.650Z,28.1
2017-11-08T19:24:17.470Z,27.4
2017-11-08T19:26:17.324Z,27.2
2017-11-08T19:28:17.169Z,27.1
2017-11-08T19:30:17.032Z,27.2
2017-11-08T19:32:20.848Z,25.9
2017-11-08T19:34:16.734Z,26.1
2017-11-08T19:36:17.557Z,26.8
2017-11-08T19:38:17.410Z,26.7
2017-11-08T19:40:17.255Z,26.6
2017-11-08T19:42:18.086Z,26.6
2017-11-08T19:44:20.913Z,28.1
2017-11-08T19:46:17.788Z,26.1
2017-11-08T19:48:16.615Z,27.1
2017-11-08T19:50:17.470Z,25.4
2017-11-08T19:52:17.317Z,26.6
2017-11-08T19:54:17.183Z,27.5
2017-11-08T19:56:18.042Z,26
2017-11-08T19:58:20.857Z,26.9
2017-11-08T20:00:16.728Z,26.2
2017-11-08T20:02:16.560Z,28.3
2017-11-08T20:04:17.405Z,25.9
2017-11-08T20:06:17.254Z,26.1
2017-11-08T20:08:17.121Z,25.3
2017-11-08T20:10:17.963Z,26.6
2017-11-08T20:12:16.802Z,26.3
2017-11-08T20:14:16.652Z,26.8
2017-11-08T20:16:17.483Z,26.5
2017-11-08T20:18:18.329Z,26.9
2017-11-08T20:20:17.164Z,25.6
2017-11-08T20:22:17.006Z,25.5
2017-11-08T20:24:16.868Z,26
2017-11-08T20:26:17.689Z,26.9
2017-11-08T20:28:21.509Z,26.4
2017-11-08T20:30:17.374Z,26.4
2017-11-08T20:32:18.193Z,25.9
2017-11-08T20:34:17.035Z,25.1
2017-11-08T20:36:16.877Z,25.2
2017-11-08T20:38:16.723Z,27.3
2017-11-08T20:40:17.576Z,25.8
2017-11-08T20:42:18.421Z,26.1
2017-11-08T20:44:17.263Z,26.7
2017-11-08T20:46:17.076Z,26.8
2017-11-08T20:48:16.912Z,27.4
2017-11-08T20:50:16.767Z,27.1
2017-11-08T20:52:16.605Z,26.7
2017-11-08T20:54:17.430Z,27.3
2017-11-08T20:56:18.262Z,28.4
2017-11-08T20:58:21.097Z,27.9
2017-11-08T21:00:17.944Z,26.6
2017-11-08T21:02:16.772Z,27.2
2017-11-08T21:04:16.608Z,27.6
2017-11-08T21:06:17.472Z,27.6
2017-11-08T21:08:21.295Z,26.3
2017-11-08T21:10:17.144Z,27.6
2017-11-08T21:12:20.945Z,27.3
2017-11-08T21:14:20.813Z,26.7
2017-11-08T21:16:17.628Z,26.5
2017-11-08T21:18:18.449Z,26.3
2017-11-08T21:20:17.300Z,27.7
2017-11-08T21:22:21.136Z,28.4
2017-11-08T21:24:17.982Z,26.8
2017-11-08T21:26:17.822Z,27.4
2017-11-08T21:28:20.640Z,26.5
2017-11-08T21:30:17.511Z,26.1
2017-11-08T21:32:17.339Z,27.9
2017-11-08T21:34:21.156Z,26.2
2017-11-08T21:36:18.023Z,28.9
2017-11-08T21:38:16.876Z,26.5
2017-11-08T21:40:17.710Z,27
2017-11-08T21:42:17.538Z,26.8
2017-11-08T21:44:17.402Z,26.3
2017-11-08T21:46:17.226Z,26.3
2017-11-08T21:48:21.033Z,28.8
2017-11-08T21:50:20.890Z,26.1
2017-11-08T21:52:20.709Z,28.4
2017-11-08T21:54:17.571Z,28
2017-11-08T21:56:17.404Z,27
2017-11-08T21:58:17.245Z,26.6
2017-11-08T22:00:21.060Z,26.2
2017-11-08T22:02:16.925Z,27.5
2017-11-08T22:04:16.760Z,27.3
2017-11-08T22:06:17.609Z,26.1
2017-11-08T22:08:17.470Z,28
2017-11-08T22:10:17.315Z,25.5
2017-11-08T22:12:17.173Z,27.8
2017-11-08T22:14:17.035Z,27.9
2017-11-08T22:16:17.888Z,27.4
2017-11-08T22:18:17.721Z,27.9
2017-11-08T22:20:16.577Z,27.7
2017-11-08T22:22:17.423Z,28
2017-11-08T22:24:18.241Z,28.2
2017-11-08T22:26:17.090Z,27.9
2017-11-08T22:28:16.925Z,27.6
2017-11-08T22:30:16.777Z,26.7
2017-11-08T22:32:16.655Z,27
2017-11-08T22:34:21.459Z,27.6
2017-11-08T22:36:17.308Z,28.8
2017-11-08T22:38:17.165Z,27.8
2017-11-08T22:40:17.031Z,27.9
2017-11-08T22:42:20.849Z,27.3
2017-11-08T22:44:16.712Z,27.6
2017-11-08T22:46:17.550Z,27.9
2017-11-08T22:48:17.417Z,27.5
2017-11-08T22:50:17.248Z,27.3
2017-11-08T22:52:17.097Z,27.8
2017-11-08T22:54:20.915Z,27.7
2017-11-08T22:56:17.772Z,26.7
2017-11-08T22:58:16.634Z,25.7
2017-11-08T23:00:21.437Z,26.5
2017-11-08T23:02:17.318Z,26
2017-11-08T23:04:18.166Z,26.2
2017-11-08T23:06:17.998Z,27.1
2017-11-08T23:08:16.843Z,27.9
2017-11-08T23:10:17.668Z,26.6
2017-11-08T23:12:21.473Z,27
2017-11-08T23:14:17.301Z,26.3
2017-11-08T23:16:17.135Z,27
2017-11-08T23:18:17.987Z,25.9
2017-11-08T23:20:17.812Z,26.3
2017-11-08T23:22:16.646Z,27.1
2017-11-08T23:24:17.494Z,26.6
2017-11-08T23:26:17.364Z,27.7
2017-11-08T23:28:17.194Z,28.3
2017-11-08T23:30:17.048Z,25.8
2017-11-08T23:32:16.880Z,27.7
2017-11-08T23:34:16.721Z,27.6
2017-11-08T23:36:17.553Z,26.5
2017-11-08T23:38:17.394Z,27.9
2017-11-08T23:40:17.232Z,26.3
2017-11-08T23:42:18.053Z,27.3
2017-11-08T23:44:16.908Z,27.3
2017-11-08T23:46:17.735Z,29.3
2017-11-08T23:48:16.576Z,26.4
2017-11-08T23:50:17.412Z,26.2
2017-11-08T23:52:17.246Z,28.4
2017-11-08T23:54:17.076Z,28.2
2017-11-08T23:56:17.890Z,26.8
2017-11-08T23:58:20.698Z,26.5
